Aérodrome :
LOGIN :

S'inscrire | Disclaimer

   EN    FR    IT 

 










Légende :    VFR   VFR Marginal   IFR   IFR Intensif   IFR Très Intensif
Visi : 
Plafond : 
>= 8 km
>= 3000ft
5 à 8 km
1000 à 3000 ft
1500m à 5 km
500 à 1000 ft
800 à 1500m
200 à 500 ft
< 800m
< 200 ft
Symboles :   Orages  Brouillard  Fortes neiges  Fortes précipitations  Vent > 20 kt
SIGMETs :   Divers  Orages  Givrage  Turbulence  Onde Orograph.  Cendres Volcan.






- Altitude de l'aérodrome : 681 ft
- Code IATA : LBA


EGNM - Leeds Bradford

DERNIER METAR :
  • 180320Z 14006KT 2200 -RA BR SCT002 BKN004 09/08 Q0995

METARs EXPIRÉS :
  • 180250Z 13005KT 2500 -RA BR SCT002 BKN004 08/08 Q0995
  • 180220Z 15006KT 1400 R14/P1500 BR SCT002 BKN005 08/08 Q0996
  • 180150Z 15006KT 2500 BR SCT002 08/08 Q0996
  • 180120Z 15008KT 1200 BR SCT002 BKN003 08/08 Q0997
  • 180050Z 16005KT 120V200 6000 SCT005 08/08 Q0997

TAF AMD TAF EGNM
Valide du 18 à 03h jusqu'au 19 à 00h UTC


180333Z 1803/1824 16010KT 9999 SCT030
TEMPO 1803/1807 6000 SHRA
PROB30
TEMPO 1803/1805 4000 +SHRA BKN003 BKN020CB
BECMG 1804/1806 VRB03KT
TEMPO 1815/1824 7000 SHRA
PROB30
TEMPO 1819/1824 4000 +SHRA BKN005 BKN020CB
ATIS : +44 113 250 9696 (x2489)



MET'MAP, la Météo Aéronautique d'un coup d'oeil ! - Copyright ORBIFLY Décembre 2007 - Disclaimer

ORBIFLY MET'MAP TEAM :

Programmation & Développement : Alexandra Zaïnal
Conception & Développement : Baudouin d'Aumeries
Co-Programmation & Développement : Marc-Olivier Méhu
Soutien technique & logistique : Manuel Goepfert

Contact : metmap@orbifly.com




SOURCES & CREDITS :

   NOAA